createdAt,value
2023-03-05T15:44:24.681Z,10.49
2023-03-05T15:49:27.811Z,10.58
2023-03-05T15:54:31.515Z,10.66
2023-03-05T15:59:36.036Z,10.67
2023-03-05T16:04:39.294Z,10.69
2023-03-05T16:09:45.580Z,10.68
2023-03-05T16:14:52.210Z,10.65
2023-03-05T16:19:57.074Z,10.63
2023-03-05T16:25:01.399Z,10.52
2023-03-05T16:30:07.237Z,10.47
2023-03-05T16:35:12.057Z,10.47
2023-03-05T16:40:15.894Z,10.35
2023-03-05T16:45:20.619Z,10.37
2023-03-05T16:50:23.809Z,10.40
2023-03-05T16:55:26.964Z,10.33
2023-03-05T17:00:31.651Z,10.33
2023-03-05T17:05:37.184Z,10.28
2023-03-05T17:10:40.353Z,10.29
2023-03-05T17:15:44.917Z,10.27
2023-03-05T17:20:48.108Z,10.33
2023-03-05T17:25:51.781Z,10.30
2023-03-05T17:31:00.162Z,10.33
2023-03-05T17:36:04.005Z,10.27
2023-03-05T17:41:07.194Z,10.28
2023-03-05T17:46:13.003Z,10.27
2023-03-05T17:51:17.544Z,10.20
2023-03-05T17:56:22.279Z,10.21
2023-03-05T18:01:29.197Z,10.13
2023-03-05T18:06:32.847Z,10.07
2023-03-05T18:11:36.009Z,10.14
2023-03-05T18:16:40.589Z,10.12
2023-03-05T18:21:44.326Z,10.12
2023-03-05T18:26:47.435Z,10.07
2023-03-05T18:31:52.017Z,10.00
2023-03-05T18:36:55.436Z,9.97
2023-03-05T18:41:58.701Z,10.02
2023-03-05T18:47:03.253Z,10.03
2023-03-05T18:52:06.708Z,10.07
2023-03-05T18:57:09.865Z,9.99
2023-03-05T19:02:16.886Z,10.00
2023-03-05T19:07:20.113Z,10.04
2023-03-05T19:12:25.001Z,10.06
2023-03-05T19:17:30.501Z,10.07
2023-03-05T19:22:34.150Z,10.12
2023-03-05T19:27:37.591Z,10.11
2023-03-05T19:32:42.166Z,10.09
2023-03-05T19:37:46.103Z,10.14
2023-03-05T19:42:49.309Z,10.20
2023-03-05T19:47:53.884Z,10.06
2023-03-05T19:52:57.035Z,10.15
2023-03-05T19:58:00.195Z,10.12
2023-03-05T20:03:04.907Z,10.10
2023-03-05T20:08:08.053Z,10.06
2023-03-05T20:13:11.225Z,10.03
2023-03-05T20:18:15.779Z,9.97
2023-03-05T20:23:18.940Z,10.07
2023-03-05T20:28:26.054Z,10.04
2023-03-05T20:33:30.967Z,9.99
2023-03-05T20:38:34.196Z,9.93
2023-03-05T20:43:40.945Z,10.05
2023-03-05T20:48:46.021Z,9.96
2023-03-05T20:53:49.610Z,10.01
2023-03-05T20:58:52.770Z,9.99
2023-03-05T21:03:58.406Z,9.93
2023-03-05T21:09:02.255Z,9.92
2023-03-05T21:14:05.428Z,10.02
2023-03-05T21:19:09.954Z,10.02
2023-03-05T21:24:13.084Z,9.97
2023-03-05T21:29:16.246Z,10.01
2023-03-05T21:34:20.796Z,10.03
2023-03-05T21:39:23.955Z,10.06
2023-03-05T21:44:27.087Z,10.12
2023-03-05T21:49:31.729Z,10.15
2023-03-05T21:54:34.871Z,10.19
2023-03-05T21:59:41.285Z,10.16
2023-03-05T22:04:46.066Z,10.19
2023-03-05T22:09:49.240Z,10.17
2023-03-05T22:14:52.368Z,10.05
2023-03-05T22:19:56.900Z,10.06
2023-03-05T22:25:00.113Z,10.02
2023-03-05T22:30:03.639Z,10.06
2023-03-05T22:35:12.606Z,10.04
2023-03-05T22:40:17.951Z,10.12
2023-03-05T22:45:21.171Z,10.15
2023-03-05T22:50:25.720Z,10.16
2023-03-05T22:55:28.885Z,10.19
2023-03-05T23:00:32.117Z,10.18
2023-03-05T23:05:39.098Z,10.16
2023-03-05T23:10:42.265Z,10.20
2023-03-05T23:15:45.463Z,10.31
2023-03-05T23:20:50.062Z,10.21
2023-03-05T23:25:54.082Z,10.20
2023-03-05T23:30:58.861Z,10.24
2023-03-05T23:36:03.610Z,10.18
2023-03-05T23:41:09.655Z,10.21
2023-03-05T23:46:13.592Z,10.17
2023-03-05T23:51:19.205Z,10.09
2023-03-05T23:56:22.354Z,10.13
